Time;durP1;ratioP1;P1;durP2;ratioP2;P2;SDS_P1;SDS_P2;PMS_P1;PMS_P2;Temp;Humidity;BMP_temperature;BMP_pressure;BME280_temperature;BME280_humidity;BME280_pressure;Samples;Min_cycle;Max_cycle;Signal;HPM_P1;HPM_P2
2023/07/26 00:01:02;;;;;;;6.10;5.47;;;17.30;99.90;;;;;;7388615;19;20186;-75
2023/07/26 00:03:28;;;;;;;6.35;5.40;;;17.10;99.90;;;;;;7391584;19;20135;-75
2023/07/26 00:05:54;;;;;;;7.40;6.57;;;17.30;99.90;;;;;;7387914;19;20629;-74
2023/07/26 00:08:20;;;;;;;7.45;6.28;;;17.30;99.90;;;;;;7385993;19;20138;-75
2023/07/26 00:10:47;;;;;;;10.70;6.68;;;17.30;99.90;;;;;;7389258;19;20214;-75
2023/07/26 00:13:16;;;;;;;10.27;6.70;;;17.30;99.90;;;;;;7389338;19;20214;-76
2023/07/26 00:15:41;;;;;;;6.68;5.85;;;17.30;99.90;;;;;;7391133;19;20466;-75
2023/07/26 00:18:07;;;;;;;7.10;5.95;;;17.40;99.90;;;;;;7387190;19;20145;-74
2023/07/26 00:20:33;;;;;;;7.07;6.38;;;17.30;99.90;;;;;;7388329;19;20152;-75
2023/07/26 00:22:59;;;;;;;7.32;5.97;;;17.20;99.90;;;;;;7390386;19;20594;-75
2023/07/26 00:25:25;;;;;;;8.20;6.10;;;17.30;99.90;;;;;;7386443;19;20289;-75
2023/07/26 00:27:51;;;;;;;6.90;6.20;;;17.10;99.90;;;;;;7380833;19;20143;-75
2023/07/26 00:30:16;;;;;;;10.65;6.25;;;17.10;99.90;;;;;;7381756;19;20130;-75
2023/07/26 00:32:42;;;;;;;9.30;6.28;;;17.00;99.90;;;;;;7389346;19;20138;-76
2023/07/26 00:35:08;;;;;;;6.93;5.80;;;17.00;99.90;;;;;;7387819;19;20167;-75
2023/07/26 00:37:34;;;;;;;6.53;5.88;;;17.00;99.90;;;;;;7387168;19;20139;-76
2023/07/26 00:39:59;;;;;;;6.28;5.55;;;17.10;99.90;;;;;;7388698;19;20139;-75
2023/07/26 00:42:25;;;;;;;7.30;5.60;;;17.20;99.90;;;;;;7385000;19;20564;-75
2023/07/26 00:44:51;;;;;;;6.95;5.53;;;17.10;99.90;;;;;;7389823;19;20138;-75
2023/07/26 00:47:17;;;;;;;8.15;5.82;;;17.00;99.90;;;;;;7386573;19;20139;-75
2023/07/26 00:49:43;;;;;;;7.80;5.13;;;17.00;99.90;;;;;;7384110;19;20138;-76
2023/07/26 00:52:11;;;;;;;6.80;5.72;;;17.00;99.90;;;;;;7390493;19;20155;-76
2023/07/26 00:54:37;;;;;;;7.50;5.43;;;17.10;99.90;;;;;;7386701;19;20130;-76
2023/07/26 00:57:03;;;;;;;6.53;5.13;;;17.30;99.90;;;;;;7388020;19;20165;-75
2023/07/26 00:59:29;;;;;;;6.03;5.43;;;17.30;99.90;;;;;;7384486;19;20154;-75
2023/07/26 01:01:55;;;;;;;6.45;5.35;;;17.40;99.90;;;;;;7388633;19;20134;-76
2023/07/26 01:04:20;;;;;;;9.95;5.70;;;17.40;99.90;;;;;;7388629;19;20194;-76
2023/07/26 01:06:49;;;;;;;8.63;5.18;;;17.30;99.90;;;;;;7386579;19;20322;-75
2023/07/26 01:09:41;;;;;;;6.72;5.15;;;17.40;99.90;;;;;;7386690;19;20138;-76
2023/07/26 01:12:18;;;;;;;4.97;4.47;;;17.40;99.90;;;;;;7387825;19;20170;-75
2023/07/26 01:14:56;;;;;;;9.10;5.47;;;17.40;99.90;;;;;;7377953;19;20160;-75
2023/07/26 01:17:22;;;;;;;4.03;3.60;;;17.40;99.90;;;;;;7387812;19;20150;-75
2023/07/26 01:19:48;;;;;;;5.30;3.90;;;17.40;99.90;;;;;;7385932;19;20158;-75
2023/07/26 01:22:14;;;;;;;5.53;4.20;;;17.40;99.90;;;;;;7388128;19;20134;-75
2023/07/26 01:24:40;;;;;;;7.28;3.50;;;17.40;99.90;;;;;;7387538;19;20218;-75
2023/07/26 01:27:05;;;;;;;5.32;4.15;;;17.30;99.90;;;;;;7384470;19;20826;-75
2023/07/26 01:29:31;;;;;;;3.60;2.72;;;17.40;99.90;;;;;;7384904;19;20139;-74
2023/07/26 01:31:57;;;;;;;4.55;3.55;;;17.10;99.90;;;;;;7387192;19;20563;-76
2023/07/26 01:34:24;;;;;;;4.45;3.00;;;17.10;99.90;;;;;;7385573;19;20137;-75
2023/07/26 01:36:53;;;;;;;3.80;2.88;;;17.10;99.90;;;;;;7386368;19;20162;-76
2023/07/26 01:39:19;;;;;;;4.25;3.13;;;17.20;99.90;;;;;;7384721;19;20205;-75
2023/07/26 01:41:47;;;;;;;4.35;3.08;;;17.30;99.90;;;;;;7386274;19;20163;-76
2023/07/26 01:44:13;;;;;;;3.92;2.90;;;17.30;99.90;;;;;;7385514;19;20226;-75
2023/07/26 01:46:39;;;;;;;3.67;3.10;;;17.30;99.90;;;;;;7386882;19;20171;-75
2023/07/26 01:49:04;;;;;;;4.25;3.60;;;17.30;99.90;;;;;;7386069;19;20199;-75
2023/07/26 01:51:30;;;;;;;5.22;3.38;;;17.30;99.90;;;;;;7385083;19;20175;-75
2023/07/26 01:53:56;;;;;;;6.00;3.45;;;17.30;99.90;;;;;;7386012;19;20152;-74
2023/07/26 01:56:22;;;;;;;3.97;3.38;;;17.20;99.90;;;;;;7386973;19;20126;-75
2023/07/26 01:58:47;;;;;;;5.75;3.40;;;17.20;99.90;;;;;;7385294;19;20139;-73
2023/07/26 02:01:13;;;;;;;4.00;3.25;;;17.10;99.90;;;;;;7386756;19;20233;-76
2023/07/26 02:03:39;;;;;;;7.75;3.13;;;17.20;99.90;;;;;;7387135;19;20522;-76
2023/07/26 02:06:05;;;;;;;4.30;3.47;;;17.20;99.90;;;;;;7385057;19;20152;-75
2023/07/26 02:08:31;;;;;;;3.35;3.03;;;17.20;99.90;;;;;;7379499;19;20221;-76
2023/07/26 02:10:56;;;;;;;4.63;3.47;;;17.20;99.90;;;;;;7381984;19;20141;-77
2023/07/26 02:13:22;;;;;;;3.97;2.92;;;17.20;99.90;;;;;;7382927;19;20146;-77
2023/07/26 02:15:48;;;;;;;4.25;2.80;;;17.20;99.90;;;;;;7385904;19;20131;-75
2023/07/26 02:18:14;;;;;;;5.25;2.80;;;17.10;99.90;;;;;;7383046;19;20150;-76
2023/07/26 02:20:40;;;;;;;6.05;2.90;;;17.10;99.90;;;;;;7386021;19;20156;-75
2023/07/26 02:23:06;;;;;;;4.85;3.30;;;17.10;99.90;;;;;;7385716;19;20706;-76
2023/07/26 02:25:31;;;;;;;2.83;2.60;;;17.20;99.90;;;;;;7384984;19;20147;-76
2023/07/26 02:27:57;;;;;;;5.78;2.80;;;17.20;99.90;;;;;;7383008;19;20177;-75
2023/07/26 02:30:24;;;;;;;3.90;2.90;;;17.20;99.90;;;;;;7384235;19;20126;-76
2023/07/26 02:32:50;;;;;;;3.53;2.70;;;17.10;99.90;;;;;;7386572;19;20462;-75
2023/07/26 02:35:16;;;;;;;3.17;2.50;;;17.00;99.90;;;;;;7386331;19;20234;-76
2023/07/26 02:37:41;;;;;;;3.65;2.90;;;17.00;99.90;;;;;;7384701;19;20138;-75
2023/07/26 02:40:10;;;;;;;4.22;2.70;;;17.00;99.90;;;;;;7383011;19;20174;-75
2023/07/26 02:42:36;;;;;;;3.53;2.50;;;17.10;99.90;;;;;;7383591;19;20150;-76
2023/07/26 02:45:02;;;;;;;4.88;2.80;;;17.10;99.90;;;;;;7386160;19;20149;-75
2023/07/26 02:47:32;;;;;;;3.60;2.33;;;17.10;99.90;;;;;;7383879;19;20131;-75
2023/07/26 02:50:01;;;;;;;4.68;2.80;;;16.90;99.90;;;;;;7382531;19;20637;-75
2023/07/26 02:52:27;;;;;;;8.55;2.90;;;17.00;99.90;;;;;;7384117;19;20165;-75
2023/07/26 02:54:53;;;;;;;2.67;2.47;;;17.10;99.90;;;;;;7383470;19;20507;-75
2023/07/26 02:57:19;;;;;;;2.38;2.13;;;17.00;99.90;;;;;;7385330;19;20131;-75
2023/07/26 02:59:45;;;;;;;2.50;2.13;;;17.00;99.90;;;;;;7384036;19;20151;-75
2023/07/26 03:02:10;;;;;;;2.80;2.10;;;17.00;99.90;;;;;;7383722;19;20143;-75
2023/07/26 03:04:36;;;;;;;3.85;2.30;;;17.00;99.90;;;;;;7385743;19;20153;-75
2023/07/26 03:07:02;;;;;;;3.28;2.50;;;16.80;99.90;;;;;;7381094;19;20582;-75
2023/07/26 03:09:27;;;;;;;2.38;2.10;;;16.90;99.90;;;;;;7382244;19;20562;-76
2023/07/26 03:11:53;;;;;;;5.30;2.65;;;16.90;99.90;;;;;;7386395;19;20153;-76
2023/07/26 03:14:19;;;;;;;2.55;2.25;;;16.90;99.90;;;;;;7389662;19;20513;-75
2023/07/26 03:16:45;;;;;;;2.50;2.00;;;17.00;99.90;;;;;;7389492;19;20493;-75
2023/07/26 03:19:10;;;;;;;3.60;2.30;;;17.00;99.90;;;;;;7390933;19;20142;-76
2023/07/26 03:21:36;;;;;;;2.30;2.10;;;17.00;99.90;;;;;;7388852;19;20178;-75
2023/07/26 03:24:02;;;;;;;2.22;2.03;;;16.80;99.90;;;;;;7391331;19;20131;-75
2023/07/26 03:26:28;;;;;;;2.50;1.83;;;16.80;99.90;;;;;;7388061;19;20168;-75
2023/07/26 03:28:53;;;;;;;2.00;1.90;;;16.80;99.90;;;;;;7385574;19;20543;-76
2023/07/26 03:31:19;;;;;;;2.50;1.88;;;16.90;99.90;;;;;;7391644;19;20157;-76
2023/07/26 03:33:45;;;;;;;1.88;1.77;;;17.00;99.90;;;;;;7389399;19;20152;-76
2023/07/26 03:36:10;;;;;;;2.90;1.70;;;17.00;99.90;;;;;;7390506;19;20150;-76
2023/07/26 03:38:36;;;;;;;2.80;2.40;;;17.00;99.90;;;;;;7389396;19;20713;-75
2023/07/26 03:41:02;;;;;;;2.60;2.08;;;16.90;99.90;;;;;;7388610;19;20452;-76
2023/07/26 03:43:27;;;;;;;2.80;2.03;;;16.80;99.90;;;;;;7389521;19;20135;-75
2023/07/26 03:45:53;;;;;;;3.88;2.15;;;16.90;99.90;;;;;;7388691;19;20925;-76
2023/07/26 03:48:19;;;;;;;3.58;2.03;;;17.00;99.90;;;;;;7386202;19;20222;-75
2023/07/26 03:50:44;;;;;;;4.05;2.60;;;16.90;99.90;;;;;;7390814;19;20138;-76
2023/07/26 03:53:10;;;;;;;7.10;3.22;;;16.90;99.90;;;;;;7392477;19;20246;-75
2023/07/26 03:55:36;;;;;;;5.38;2.85;;;16.90;99.90;;;;;;7390794;19;20564;-74
2023/07/26 03:58:01;;;;;;;4.88;2.70;;;16.90;99.90;;;;;;7390471;19;20149;-75
2023/07/26 04:00:27;;;;;;;2.28;1.95;;;16.90;99.90;;;;;;7388735;19;20150;-75
2023/07/26 04:02:53;;;;;;;4.20;2.17;;;17.00;99.90;;;;;;7389240;19;20161;-75
2023/07/26 04:05:19;;;;;;;4.10;2.30;;;16.90;99.90;;;;;;7388541;19;20135;-75
2023/07/26 04:07:44;;;;;;;3.33;2.28;;;16.80;99.90;;;;;;7386112;19;20201;-75
2023/07/26 04:10:10;;;;;;;3.70;1.95;;;16.70;99.90;;;;;;7388262;19;20193;-75
2023/07/26 04:12:36;;;;;;;3.70;2.35;;;16.80;99.90;;;;;;7388747;19;20178;-75
2023/07/26 04:15:02;;;;;;;3.95;2.30;;;16.80;99.90;;;;;;7388051;19;20610;-75
2023/07/26 04:17:31;;;;;;;2.60;2.05;;;16.70;99.90;;;;;;7390834;19;20587;-75
2023/07/26 04:19:56;;;;;;;4.40;2.35;;;16.80;99.90;;;;;;7386875;19;20163;-76
2023/07/26 04:22:22;;;;;;;2.47;1.98;;;16.70;99.90;;;;;;7388076;19;20599;-75
2023/07/26 04:24:48;;;;;;;3.63;2.17;;;16.80;99.90;;;;;;7387830;19;20143;-75
2023/07/26 04:27:13;;;;;;;2.67;2.47;;;16.90;99.90;;;;;;7385857;19;20181;-74
2023/07/26 04:29:42;;;;;;;3.22;2.47;;;16.80;99.90;;;;;;7387825;19;20135;-75
2023/07/26 04:32:08;;;;;;;4.10;2.28;;;16.80;99.90;;;;;;7387200;19;20142;-75
2023/07/26 04:34:34;;;;;;;2.75;2.30;;;16.90;99.90;;;;;;7388166;19;20134;-76
2023/07/26 04:36:59;;;;;;;2.97;2.10;;;16.70;99.90;;;;;;7390142;19;20878;-76
2023/07/26 04:39:25;;;;;;;3.00;2.50;;;16.90;99.90;;;;;;7387598;19;20158;-76
2023/07/26 04:41:51;;;;;;;3.60;2.47;;;16.90;99.90;;;;;;7387924;19;20131;-76
2023/07/26 04:44:17;;;;;;;5.50;2.60;;;16.90;99.90;;;;;;7389104;19;20134;-76
2023/07/26 04:46:43;;;;;;;5.35;2.03;;;16.80;99.90;;;;;;7387900;19;20122;-75
2023/07/26 04:49:08;;;;;;;2.25;2.00;;;16.80;99.90;;;;;;7386276;19;20196;-75
2023/07/26 04:51:34;;;;;;;2.63;1.90;;;16.90;99.90;;;;;;7387565;19;20145;-75
2023/07/26 04:54:00;;;;;;;4.03;3.30;;;16.80;99.90;;;;;;7388202;19;20138;-75
2023/07/26 04:56:26;;;;;;;2.58;1.92;;;16.80;99.90;;;;;;7387307;19;20142;-75
2023/07/26 04:58:52;;;;;;;3.30;1.67;;;16.90;99.90;;;;;;7388322;19;20214;-75
2023/07/26 05:01:19;;;;;;;2.17;1.77;;;16.90;99.90;;;;;;7389011;19;20658;-75
2023/07/26 05:03:45;;;;;;;3.75;2.17;;;16.90;99.90;;;;;;7387174;19;20188;-75
2023/07/26 05:06:11;;;;;;;3.83;2.05;;;16.80;99.90;;;;;;7388188;19;20212;-75
2023/07/26 05:08:37;;;;;;;2.72;2.05;;;17.00;99.90;;;;;;7383750;19;20151;-77
2023/07/26 05:11:04;;;;;;;3.25;2.05;;;17.00;99.90;;;;;;7388827;19;20150;-76
2023/07/26 05:13:30;;;;;;;2.65;1.98;;;17.00;99.90;;;;;;7386009;19;20153;-75
2023/07/26 05:15:55;;;;;;;2.22;1.80;;;17.00;99.90;;;;;;7389527;19;20554;-76
2023/07/26 05:18:21;;;;;;;2.80;2.20;;;17.10;99.90;;;;;;7385292;19;20151;-75
2023/07/26 05:20:51;;;;;;;2.90;2.28;;;17.10;99.90;;;;;;7388566;19;20150;-76
2023/07/26 05:23:17;;;;;;;5.00;2.67;;;17.10;99.90;;;;;;7388805;19;20566;-75
2023/07/26 05:25:43;;;;;;;6.28;2.28;;;17.10;99.90;;;;;;7384771;19;20142;-76
2023/07/26 05:28:08;;;;;;;2.10;2.00;;;17.00;99.90;;;;;;7384491;19;20169;-74
2023/07/26 05:30:41;;;;;;;3.47;2.05;;;17.00;99.90;;;;;;7385846;19;20158;-74
2023/07/26 05:33:08;;;;;;;2.30;1.80;;;16.90;99.90;;;;;;7387422;19;20210;-74
2023/07/26 05:35:34;;;;;;;2.22;1.95;;;16.80;99.90;;;;;;7388587;19;20135;-75
2023/07/26 05:38:02;;;;;;;3.28;1.90;;;16.80;99.90;;;;;;7387625;19;20161;-75
2023/07/26 05:40:27;;;;;;;11.38;8.50;;;16.90;99.90;;;;;;7386338;19;20138;-75
2023/07/26 05:42:54;;;;;;;4.32;2.70;;;16.90;99.90;;;;;;7389635;19;20134;-75
2023/07/26 05:45:20;;;;;;;2.50;2.25;;;17.00;99.90;;;;;;7385838;19;20144;-75
2023/07/26 05:47:45;;;;;;;3.80;2.25;;;16.80;99.90;;;;;;7384708;19;20616;-75
2023/07/26 05:50:11;;;;;;;3.90;1.92;;;16.80;99.90;;;;;;7384164;19;20185;-75
2023/07/26 05:52:38;;;;;;;2.28;1.70;;;16.90;99.90;;;;;;7388623;19;20134;-75
2023/07/26 05:55:05;;;;;;;2.13;1.60;;;16.90;99.90;;;;;;7385955;19;20593;-75
2023/07/26 05:57:31;;;;;;;3.83;1.92;;;16.80;99.90;;;;;;7386523;19;20158;-76
2023/07/26 05:59:56;;;;;;;4.35;2.28;;;17.00;99.90;;;;;;7386327;19;20545;-76
2023/07/26 06:02:22;;;;;;;3.55;2.20;;;17.10;99.90;;;;;;7387055;19;20150;-75
2023/07/26 06:04:48;;;;;;;4.45;1.77;;;17.30;99.90;;;;;;7387604;19;20226;-75
2023/07/26 06:07:16;;;;;;;2.88;1.90;;;17.20;99.90;;;;;;7383689;19;20177;-75
2023/07/26 06:09:44;;;;;;;2.42;1.75;;;17.30;99.90;;;;;;7382053;19;20328;-75
2023/07/26 06:12:10;;;;;;;2.88;2.00;;;17.40;99.90;;;;;;7383248;19;20577;-76
2023/07/26 06:14:37;;;;;;;3.17;2.20;;;17.50;99.90;;;;;;7382219;19;20153;-76
2023/07/26 06:17:03;;;;;;;4.25;2.83;;;17.60;99.90;;;;;;7383913;19;20586;-77
2023/07/26 06:19:29;;;;;;;2.83;2.33;;;17.70;99.90;;;;;;7383983;19;20142;-77
2023/07/26 06:21:57;;;;;;;5.70;2.10;;;17.70;99.90;;;;;;7379792;19;20603;-77
2023/07/26 06:24:24;;;;;;;4.10;2.70;;;17.80;99.90;;;;;;7375529;19;20146;-78
2023/07/26 06:26:53;;;;;;;3.03;1.92;;;17.90;99.90;;;;;;7376869;19;20159;-78
2023/07/26 06:29:19;;;;;;;3.42;2.30;;;18.10;99.90;;;;;;7383757;19;20516;-78
2023/07/26 06:31:45;;;;;;;2.58;2.20;;;18.30;99.90;;;;;;7384235;19;20153;-77
2023/07/26 06:34:11;;;;;;;4.63;2.00;;;18.70;99.90;;;;;;7383325;19;20146;-78
2023/07/26 06:36:37;;;;;;;3.88;1.90;;;18.80;99.90;;;;;;7380852;19;20150;-75
2023/07/26 06:39:03;;;;;;;2.70;1.73;;;18.60;99.90;;;;;;7384602;19;20257;-74
2023/07/26 06:41:28;;;;;;;3.95;1.65;;;18.50;99.90;;;;;;7384667;19;20629;-75
2023/07/26 06:43:54;;;;;;;2.97;1.70;;;18.40;99.90;;;;;;7382618;19;20131;-74
2023/07/26 06:46:20;;;;;;;3.75;2.00;;;18.00;99.90;;;;;;7380240;19;20157;-75
2023/07/26 06:48:46;;;;;;;2.85;2.10;;;17.50;99.90;;;;;;7363342;19;20168;-73
2023/07/26 06:51:12;;;;;;;5.82;2.08;;;17.60;99.90;;;;;;7384555;19;20143;-74
2023/07/26 06:53:38;;;;;;;4.55;2.10;;;17.70;99.90;;;;;;7380722;19;20138;-74
2023/07/26 06:56:04;;;;;;;2.72;2.13;;;18.00;99.90;;;;;;7383938;19;20241;-74
2023/07/26 06:58:30;;;;;;;2.25;1.70;;;18.40;99.90;;;;;;7383677;19;20141;-74
2023/07/26 07:00:55;;;;;;;3.30;1.75;;;18.60;99.90;;;;;;7382797;19;20142;-76
2023/07/26 07:03:21;;;;;;;4.57;1.73;;;18.60;99.90;;;;;;7383485;19;20147;-77
2023/07/26 07:05:47;;;;;;;6.68;1.73;;;18.50;99.90;;;;;;7383756;19;20126;-76
2023/07/26 07:08:13;;;;;;;2.63;1.92;;;18.30;99.90;;;;;;7381580;19;20152;-76
2023/07/26 07:10:39;;;;;;;5.95;4.93;;;18.20;99.90;;;;;;7384459;19;20591;-76
2023/07/26 07:13:05;;;;;;;4.28;2.30;;;18.00;99.90;;;;;;7384085;19;20151;-76
2023/07/26 07:15:30;;;;;;;4.43;1.70;;;17.60;99.90;;;;;;7383200;19;20138;-76
2023/07/26 07:17:56;;;;;;;2.22;1.90;;;17.40;99.90;;;;;;7382659;19;20157;-74
2023/07/26 07:20:22;;;;;;;2.95;2.10;;;17.20;99.90;;;;;;7382584;19;20150;-75
2023/07/26 07:22:52;;;;;;;2.80;2.08;;;17.20;99.90;;;;;;7387935;19;20552;-75
2023/07/26 07:25:17;;;;;;;7.15;2.60;;;17.50;99.90;;;;;;7382794;19;20176;-76
2023/07/26 07:27:43;;;;;;;4.18;2.53;;;17.50;99.90;;;;;;7380805;19;20134;-75
2023/07/26 07:30:10;;;;;;;2.75;2.15;;;17.60;99.90;;;;;;7381703;19;20135;-74
2023/07/26 07:32:37;;;;;;;4.85;2.78;;;17.60;99.90;;;;;;7383352;19;20162;-75
2023/07/26 07:35:07;;;;;;;5.00;2.50;;;17.50;99.90;;;;;;7382296;19;20222;-76
2023/07/26 07:37:33;;;;;;;5.13;2.60;;;17.50;99.90;;;;;;7382969;19;20143;-74
2023/07/26 07:40:02;;;;;;;5.85;2.42;;;17.50;99.90;;;;;;7383591;19;20135;-74
2023/07/26 07:42:30;;;;;;;5.85;4.35;;;17.60;99.90;;;;;;7383763;19;20884;-76
2023/07/26 07:44:56;;;;;;;6.53;4.20;;;17.60;99.90;;;;;;7380407;19;20163;-75
2023/07/26 07:47:21;;;;;;;9.27;6.47;;;17.50;99.90;;;;;;7372195;19;20142;-74
2023/07/26 07:49:47;;;;;;;5.53;3.08;;;17.30;99.90;;;;;;7380220;19;20465;-74
2023/07/26 07:52:13;;;;;;;5.65;2.75;;;17.40;99.90;;;;;;7373451;19;20131;-75
2023/07/26 07:54:39;;;;;;;3.85;2.33;;;17.60;99.90;;;;;;7382713;19;20138;-75
2023/07/26 07:57:05;;;;;;;5.10;3.55;;;17.80;99.90;;;;;;7385408;19;20153;-76
2023/07/26 07:59:31;;;;;;;3.90;2.47;;;17.80;99.90;;;;;;7388991;19;20139;-75
2023/07/26 08:01:56;;;;;;;5.63;2.58;;;17.70;99.90;;;;;;7388688;19;20131;-78
2023/07/26 08:04:22;;;;;;;4.00;2.47;;;17.60;99.90;;;;;;7388125;19;20142;-78
2023/07/26 08:06:48;;;;;;;6.63;2.55;;;17.30;99.90;;;;;;7389822;19;20147;-76
2023/07/26 08:09:14;;;;;;;3.58;2.10;;;17.50;99.90;;;;;;7389961;19;20134;-76
2023/07/26 08:11:40;;;;;;;4.68;3.15;;;17.20;99.90;;;;;;7386639;19;20513;-79
2023/07/26 08:14:06;;;;;;;8.68;5.38;;;17.30;99.90;;;;;;7389068;19;20500;-78
2023/07/26 08:16:31;;;;;;;4.47;2.90;;;17.20;99.90;;;;;;7387369;19;20604;-79
2023/07/26 08:19:01;;;;;;;5.72;4.15;;;17.20;99.90;;;;;;7386707;19;20153;-77
2023/07/26 08:21:26;;;;;;;5.53;3.72;;;17.00;99.90;;;;;;7389572;19;20164;-75
2023/07/26 08:23:52;;;;;;;7.10;5.57;;;17.20;99.90;;;;;;7389133;19;20150;-76
2023/07/26 08:26:18;;;;;;;2.40;1.75;;;17.10;99.90;;;;;;7387967;19;20168;-77
2023/07/26 08:28:44;;;;;;;2.80;1.63;;;17.30;99.90;;;;;;7385431;19;20830;-76
2023/07/26 08:31:11;;;;;;;2.78;1.70;;;17.30;99.90;;;;;;7387645;19;20134;-76
2023/07/26 08:33:36;;;;;;;5.63;1.92;;;17.50;99.90;;;;;;7388950;19;20172;-76
2023/07/26 08:36:02;;;;;;;2.25;1.73;;;17.50;99.90;;;;;;7387182;19;20190;-74
2023/07/26 08:38:33;;;;;;;4.80;2.35;;;17.40;99.90;;;;;;7385244;19;20133;-75
2023/07/26 08:40:59;;;;;;;3.10;1.98;;;17.40;99.90;;;;;;7385533;19;20143;-75
2023/07/26 08:43:30;;;;;;;3.92;2.40;;;17.50;99.90;;;;;;7390400;19;20484;-74
2023/07/26 08:46:00;;;;;;;3.05;1.60;;;17.50;99.90;;;;;;7388060;19;20147;-75
2023/07/26 08:48:27;;;;;;;2.88;2.05;;;17.60;99.90;;;;;;7384243;19;20206;-74
2023/07/26 08:50:53;;;;;;;2.22;1.38;;;17.40;99.90;;;;;;7388509;19;20131;-77
2023/07/26 08:53:19;;;;;;;3.08;1.80;;;17.30;99.90;;;;;;7388901;19;20255;-75
2023/07/26 08:55:45;;;;;;;5.63;2.92;;;17.60;99.90;;;;;;7388723;19;20130;-76
2023/07/26 08:58:11;;;;;;;3.15;2.53;;;17.70;99.90;;;;;;7387696;19;20162;-76
2023/07/26 09:00:37;;;;;;;2.55;1.23;;;17.70;99.90;;;;;;7387863;19;20130;-76
2023/07/26 09:03:10;;;;;;;3.15;1.60;;;17.70;99.90;;;;;;7392065;19;20276;-76
2023/07/26 09:05:39;;;;;;;2.50;1.83;;;17.80;99.90;;;;;;7381767;19;20248;-77
2023/07/26 09:08:05;;;;;;;1.15;0.98;;;17.70;99.90;;;;;;7378169;19;20134;-78
2023/07/26 09:10:31;;;;;;;3.30;1.10;;;18.00;99.90;;;;;;7386972;19;20127;-77
2023/07/26 09:13:14;;;;;;;1.20;0.82;;;18.00;99.90;;;;;;7387135;19;20147;-78
2023/07/26 09:15:44;;;;;;;1.10;0.70;;;18.00;99.90;;;;;;7385875;19;20625;-78
2023/07/26 09:18:12;;;;;;;1.23;1.10;;;18.10;99.90;;;;;;7386462;19;20143;-77
2023/07/26 09:20:38;;;;;;;1.23;1.00;;;18.10;99.90;;;;;;7387435;19;20134;-77
2023/07/26 09:23:05;;;;;;;3.00;0.90;;;18.20;99.90;;;;;;7389300;19;20134;-77
2023/07/26 09:25:37;;;;;;;0.90;0.63;;;18.20;99.90;;;;;;7386730;19;20176;-78
2023/07/26 09:28:03;;;;;;;2.55;0.90;;;18.20;99.90;;;;;;7384390;19;20156;-77
2023/07/26 09:30:30;;;;;;;5.93;1.25;;;18.20;99.90;;;;;;7387657;19;20274;-79
2023/07/26 09:32:56;;;;;;;2.20;1.08;;;18.30;99.90;;;;;;7386510;19;20704;-74
2023/07/26 09:35:22;;;;;;;1.20;0.80;;;18.30;99.90;;;;;;7381082;19;20138;-73
2023/07/26 09:37:49;;;;;;;1.23;0.65;;;18.30;99.90;;;;;;7384834;19;20146;-75
2023/07/26 09:40:14;;;;;;;1.80;0.70;;;18.30;99.90;;;;;;7384234;19;20142;-76
2023/07/26 09:42:47;;;;;;;0.68;0.63;;;18.30;99.90;;;;;;7385364;19;20134;-75
2023/07/26 09:45:24;;;;;;;2.22;0.73;;;18.20;99.90;;;;;;7387932;19;20451;-76
2023/07/26 09:47:51;;;;;;;0.65;0.60;;;18.20;99.90;;;;;;7382988;19;20134;-75
2023/07/26 09:50:25;;;;;;;1.08;0.77;;;18.30;99.90;;;;;;7386557;19;20589;-77
2023/07/26 09:52:55;;;;;;;0.70;0.70;;;18.10;99.90;;;;;;7384545;19;20155;-76
2023/07/26 09:55:27;;;;;;;0.80;0.75;;;17.90;99.90;;;;;;7385225;19;20142;-77
2023/07/26 09:57:55;;;;;;;1.80;0.95;;;17.80;99.90;;;;;;7387512;19;20146;-77
2023/07/26 10:00:23;;;;;;;2.20;2.00;;;17.60;99.90;;;;;;7386548;19;20169;-81
2023/07/26 10:02:58;;;;;;;19.13;12.10;;;17.40;99.90;;;;;;7385581;19;21319;-77
2023/07/26 10:05:34;;;;;;;2.70;1.50;;;17.90;99.90;;;;;;7383792;19;20134;-76
2023/07/26 10:08:00;;;;;;;1.80;1.20;;;18.20;99.90;;;;;;7381665;19;20145;-78
2023/07/26 10:10:29;;;;;;;3.25;2.90;;;18.50;99.90;;;;;;7387769;19;20147;-77
2023/07/26 10:12:58;;;;;;;0.85;0.80;;;18.40;99.90;;;;;;7387148;19;20217;-76
2023/07/26 10:15:26;;;;;;;0.90;0.70;;;18.20;99.90;;;;;;7385440;19;20131;-77
2023/07/26 10:17:53;;;;;;;1.70;1.08;;;18.50;99.90;;;;;;7384881;19;20146;-77
2023/07/26 10:20:19;;;;;;;1.40;0.82;;;18.80;99.90;;;;;;7384019;19;20135;-77
2023/07/26 10:22:47;;;;;;;2.72;0.88;;;18.80;99.90;;;;;;7385744;19;20462;-75
2023/07/26 10:25:13;;;;;;;4.40;1.05;;;18.80;99.90;;;;;;7385071;19;20165;-75
2023/07/26 10:27:40;;;;;;;1.00;0.93;;;18.70;99.90;;;;;;7382948;19;20154;-75
2023/07/26 10:30:06;;;;;;;1.38;1.05;;;18.30;99.90;;;;;;7385038;19;20812;-75
2023/07/26 10:32:32;;;;;;;3.17;2.35;;;18.40;99.90;;;;;;7388042;19;20166;-75
2023/07/26 10:35:01;;;;;;;1.77;1.33;;;18.40;99.90;;;;;;7387671;19;20160;-76
2023/07/26 10:37:33;;;;;;;3.28;1.05;;;18.10;99.90;;;;;;7388404;19;20142;-76
2023/07/26 10:39:59;;;;;;;1.50;1.10;;;18.40;99.90;;;;;;7382420;19;20155;-75
2023/07/26 10:42:27;;;;;;;3.15;1.40;;;18.50;99.90;;;;;;7385017;19;20162;-75
2023/07/26 10:45:02;;;;;;;1.77;1.20;;;18.40;99.90;;;;;;7383930;19;22131;-76
2023/07/26 10:47:29;;;;;;;4.13;2.30;;;18.70;99.90;;;;;;7385186;19;20149;-76
2023/07/26 10:50:03;;;;;;;3.05;1.25;;;18.50;99.90;;;;;;7382446;19;20154;-75
2023/07/26 10:52:36;;;;;;;1.40;1.10;;;18.60;99.90;;;;;;7384324;19;20137;-76
2023/07/26 10:55:29;;;;;;;2.47;1.70;;;18.40;99.90;;;;;;7383990;19;20681;-76
2023/07/26 10:57:57;;;;;;;2.33;1.20;;;18.80;99.90;;;;;;7383020;19;20142;-77
2023/07/26 11:00:37;;;;;;;4.15;1.10;;;18.80;99.90;;;;;;7383055;19;20141;-76
2023/07/26 11:03:02;;;;;;;2.70;1.20;;;18.70;99.90;;;;;;7384274;19;20571;-76
2023/07/26 11:05:29;;;;;;;2.95;1.60;;;18.90;99.90;;;;;;7382182;19;20203;-76
2023/07/26 11:08:03;;;;;;;1.17;1.08;;;19.10;99.90;;;;;;7383336;19;20164;-75
2023/07/26 11:10:49;;;;;;;2.70;1.10;;;19.10;99.90;;;;;;7386791;19;20130;-75
2023/07/26 11:13:37;;;;;;;2.20;1.38;;;19.50;99.90;;;;;;7385510;19;20232;-75
2023/07/26 11:16:04;;;;;;;0.90;0.85;;;19.70;99.90;;;;;;7385520;19;20590;-77
2023/07/26 11:18:29;;;;;;;2.03;1.75;;;19.40;99.90;;;;;;7378179;19;20147;-79
2023/07/26 11:20:56;;;;;;;2.13;1.40;;;19.40;99.90;;;;;;7380430;19;20186;-76
2023/07/26 11:23:27;;;;;;;3.40;1.83;;;19.50;99.90;;;;;;7374599;19;20134;-78
2023/07/26 11:26:00;;;;;;;2.35;1.80;;;19.90;99.90;;;;;;7376212;19;20189;-76
2023/07/26 11:28:56;;;;;;;2.47;1.80;;;19.90;99.90;;;;;;7378264;19;20210;-77
2023/07/26 11:31:22;;;;;;;6.18;3.35;;;19.90;99.90;;;;;;7380322;19;20870;-77
2023/07/26 11:33:51;;;;;;;3.92;2.45;;;19.80;99.90;;;;;;7386045;19;20178;-77
2023/07/26 11:36:21;;;;;;;5.93;2.20;;;20.10;99.90;;;;;;7388514;19;20147;-76
2023/07/26 11:38:49;;;;;;;2.45;1.48;;;20.10;99.90;;;;;;7385399;19;20154;-77
2023/07/26 11:41:19;;;;;;;2.95;1.65;;;20.10;99.90;;;;;;7390206;19;20526;-78
2023/07/26 11:43:45;;;;;;;4.80;4.07;;;20.10;99.90;;;;;;7391086;19;20742;-77
2023/07/26 11:46:11;;;;;;;3.05;1.75;;;20.10;99.90;;;;;;7390027;19;20138;-76
2023/07/26 11:48:37;;;;;;;2.33;1.20;;;19.90;99.90;;;;;;7384934;19;20962;-77
2023/07/26 11:51:05;;;;;;;1.60;1.23;;;20.00;99.90;;;;;;7390240;19;20138;-76
2023/07/26 11:53:36;;;;;;;2.10;1.50;;;20.00;99.90;;;;;;7384148;19;20603;-76
2023/07/26 11:56:04;;;;;;;2.58;1.35;;;19.90;99.90;;;;;;7386225;19;20154;-76
2023/07/26 11:58:34;;;;;;;3.10;1.90;;;19.80;99.90;;;;;;7388534;19;20162;-77
2023/07/26 12:01:02;;;;;;;5.47;4.15;;;19.70;99.90;;;;;;7389493;19;20135;-77
2023/07/26 12:03:28;;;;;;;3.70;2.72;;;19.70;99.90;;;;;;7390541;19;20484;-77
2023/07/26 12:05:53;;;;;;;2.45;1.30;;;19.70;99.90;;;;;;7387794;19;20141;-77
2023/07/26 12:08:20;;;;;;;19.23;11.90;;;19.70;99.90;;;;;;7385686;19;20158;-71
2023/07/26 12:10:47;;;;;;;9.23;6.10;;;19.90;99.90;;;;;;7387717;19;20142;-73
2023/07/26 12:13:21;;;;;;;2.97;1.70;;;20.10;99.90;;;;;;7391300;19;20586;-73
2023/07/26 12:16:09;;;;;;;1.70;1.35;;;20.40;99.90;;;;;;7389761;19;20213;-73
2023/07/26 12:18:35;;;;;;;2.30;1.42;;;20.50;99.90;;;;;;7387548;19;20150;-71
2023/07/26 12:21:09;;;;;;;2.90;1.67;;;20.50;99.90;;;;;;7387870;19;20151;-74
2023/07/26 12:23:56;;;;;;;3.63;1.70;;;20.80;99.90;;;;;;7388804;19;20134;-72
2023/07/26 12:26:29;;;;;;;2.88;1.50;;;20.80;99.90;;;;;;7387083;19;20154;-72
2023/07/26 12:28:55;;;;;;;2.42;1.63;;;20.70;99.90;;;;;;7383904;19;20138;-73
2023/07/26 12:31:23;;;;;;;2.03;1.67;;;20.70;99.90;;;;;;7388105;19;20160;-74
2023/07/26 12:33:57;;;;;;;2.88;1.60;;;21.00;99.90;;;;;;7388536;19;20260;-74
2023/07/26 12:36:45;;;;;;;2.00;1.67;;;20.90;99.90;;;;;;7386971;19;20173;-73
2023/07/26 12:39:12;;;;;;;3.17;1.70;;;20.80;99.90;;;;;;7386161;19;20493;-73
2023/07/26 12:41:40;;;;;;;2.35;1.58;;;20.70;99.90;;;;;;7387237;19;20589;-73
2023/07/26 12:44:07;;;;;;;2.35;1.58;;;20.80;99.90;;;;;;7381986;19;20174;-72
2023/07/26 12:46:33;;;;;;;1.60;1.48;;;20.60;99.90;;;;;;7389154;19;20209;-72